sensor_id;sensor_type;location;lat;lon;timestamp;pressure;altitude;pressure_sealevel;temperature;humidity
34237;BME280;20501;45.956;13.632;2023-04-01T00:00:29;99447.53;;;12.53;70.25
34237;BME280;20501;45.956;13.632;2023-04-01T00:02:55;99466.53;;;11.09;69.22
34237;BME280;20501;45.956;13.632;2023-04-01T00:05:20;99471.13;;;11.73;73.11
34237;BME280;20501;45.956;13.632;2023-04-01T00:07:46;99468.91;;;12.72;69.22
34237;BME280;20501;45.956;13.632;2023-04-01T00:10:12;99454.84;;;11.90;69.27
34237;BME280;20501;45.956;13.632;2023-04-01T00:12:39;99455.81;;;12.75;69.08
34237;BME280;20501;45.956;13.632;2023-04-01T00:15:06;99461.16;;;11.01;74.86
34237;BME280;20501;45.956;13.632;2023-04-01T00:17:33;99448.28;;;11.20;75.06
34237;BME280;20501;45.956;13.632;2023-04-01T00:19:59;99449.81;;;11.79;72.50
34237;BME280;20501;45.956;13.632;2023-04-01T00:22:25;99462.06;;;12.61;69.80
34237;BME280;20501;45.956;13.632;2023-04-01T00:24:51;99468.31;;;11.50;69.99
34237;BME280;20501;45.956;13.632;2023-04-01T00:27:17;99474.66;;;10.60;77.94
34237;BME280;20501;45.956;13.632;2023-04-01T00:29:44;99474.53;;;12.38;71.00
34237;BME280;20501;45.956;13.632;2023-04-01T00:32:10;99469.81;;;11.69;71.31
34237;BME280;20501;45.956;13.632;2023-04-01T00:34:36;99461.63;;;12.49;69.46
34237;BME280;20501;45.956;13.632;2023-04-01T00:37:02;99445.09;;;12.12;70.83
34237;BME280;20501;45.956;13.632;2023-04-01T00:39:31;99440.53;;;12.59;69.73
34237;BME280;20501;45.956;13.632;2023-04-01T00:41:57;99439.94;;;13.10;67.67
34237;BME280;20501;45.956;13.632;2023-04-01T00:44:25;99452.31;;;13.28;67.04
34237;BME280;20501;45.956;13.632;2023-04-01T00:46:51;99465.59;;;13.38;66.74
34237;BME280;20501;45.956;13.632;2023-04-01T00:49:22;99457.28;;;11.68;68.88
34237;BME280;20501;45.956;13.632;2023-04-01T00:51:52;99467.56;;;12.91;68.49
34237;BME280;20501;45.956;13.632;2023-04-01T00:54:19;99464.34;;;13.25;67.05
34237;BME280;20501;45.956;13.632;2023-04-01T00:59:38;99455.41;;;10.38;73.70
34237;BME280;20501;45.956;13.632;2023-04-01T01:02:07;99457.00;;;12.26;70.80
34237;BME280;20501;45.956;13.632;2023-04-01T01:04:34;99454.44;;;11.61;71.42
34237;BME280;20501;45.956;13.632;2023-04-01T01:37:57;99413.56;;;11.48;71.83
34237;BME280;20501;45.956;13.632;2023-04-01T01:40:26;99398.38;;;12.42;69.21
34237;BME280;20501;45.956;13.632;2023-04-01T01:42:56;99399.44;;;12.94;67.31
34237;BME280;20501;45.956;13.632;2023-04-01T01:45:25;99386.06;;;13.07;66.72
34237;BME280;20501;45.956;13.632;2023-04-01T01:47:51;99388.88;;;13.14;66.26
34237;BME280;20501;45.956;13.632;2023-04-01T01:50:18;99388.59;;;12.94;66.44
34237;BME280;20501;45.956;13.632;2023-04-01T01:52:44;99383.09;;;13.02;65.94
34237;BME280;20501;45.956;13.632;2023-04-01T01:55:43;99372.09;;;12.65;67.90
34237;BME280;20501;45.956;13.632;2023-04-01T01:58:11;99371.91;;;12.29;65.80
34237;BME280;20501;45.956;13.632;2023-04-01T02:00:39;99366.31;;;10.63;69.10
34237;BME280;20501;45.956;13.632;2023-04-01T02:03:06;99370.19;;;10.68;74.15
34237;BME280;20501;45.956;13.632;2023-04-01T02:05:31;99363.13;;;9.67;78.71
34237;BME280;20501;45.956;13.632;2023-04-01T02:08:12;99361.94;;;11.66;72.11
34237;BME280;20501;45.956;13.632;2023-04-01T02:10:42;99359.50;;;12.73;67.54
34237;BME280;20501;45.956;13.632;2023-04-01T02:13:18;99356.06;;;12.79;67.12
34237;BME280;20501;45.956;13.632;2023-04-01T02:15:47;99350.75;;;13.15;65.82
34237;BME280;20501;45.956;13.632;2023-04-01T02:18:15;99342.88;;;13.06;66.05
34237;BME280;20501;45.956;13.632;2023-04-01T02:20:42;99351.19;;;11.02;69.06
34237;BME280;20501;45.956;13.632;2023-04-01T02:23:10;99359.88;;;12.08;69.36
34237;BME280;20501;45.956;13.632;2023-04-01T02:25:37;99359.09;;;11.59;67.12
34237;BME280;20501;45.956;13.632;2023-04-01T02:28:05;99350.53;;;11.39;70.24
34237;BME280;20501;45.956;13.632;2023-04-01T02:30:34;99361.72;;;10.14;73.60
34237;BME280;20501;45.956;13.632;2023-04-01T02:33:01;99364.94;;;10.42;72.61
34237;BME280;20501;45.956;13.632;2023-04-01T02:35:27;99366.06;;;11.85;70.64
34237;BME280;20501;45.956;13.632;2023-04-01T02:37:53;99367.91;;;12.63;67.73
34237;BME280;20501;45.956;13.632;2023-04-01T02:40:19;99359.31;;;12.13;68.52
34237;BME280;20501;45.956;13.632;2023-04-01T02:42:45;99371.97;;;12.59;67.71
34237;BME280;20501;45.956;13.632;2023-04-01T02:45:12;99374.63;;;12.20;67.65
34237;BME280;20501;45.956;13.632;2023-04-01T02:47:38;99369.91;;;11.59;69.71
34237;BME280;20501;45.956;13.632;2023-04-01T02:50:04;99378.94;;;12.38;68.10
34237;BME280;20501;45.956;13.632;2023-04-01T02:52:30;99380.72;;;12.46;67.68
34237;BME280;20501;45.956;13.632;2023-04-01T02:54:56;99380.28;;;11.48;65.92
34237;BME280;20501;45.956;13.632;2023-04-01T02:57:22;99388.25;;;9.67;74.33
34237;BME280;20501;45.956;13.632;2023-04-01T02:59:48;99386.16;;;11.03;71.04
34237;BME280;20501;45.956;13.632;2023-04-01T03:02:14;99387.31;;;11.97;69.30
34237;BME280;20501;45.956;13.632;2023-04-01T03:04:40;99386.81;;;11.93;69.40
34237;BME280;20501;45.956;13.632;2023-04-01T03:07:06;99392.88;;;12.50;67.13
34237;BME280;20501;45.956;13.632;2023-04-01T03:09:31;99397.88;;;12.61;66.00
34237;BME280;20501;45.956;13.632;2023-04-01T03:11:57;99393.13;;;12.78;66.12
34237;BME280;20501;45.956;13.632;2023-04-01T03:14:22;99388.19;;;11.01;70.82
34237;BME280;20501;45.956;13.632;2023-04-01T03:16:48;99395.34;;;12.60;67.13
34237;BME280;20501;45.956;13.632;2023-04-01T03:19:13;99391.59;;;12.99;65.47
34237;BME280;20501;45.956;13.632;2023-04-01T03:21:39;99384.13;;;13.16;64.81
34237;BME280;20501;45.956;13.632;2023-04-01T03:24:05;99380.72;;;12.46;66.83
34237;BME280;20501;45.956;13.632;2023-04-01T03:26:31;99383.66;;;11.41;66.31
34237;BME280;20501;45.956;13.632;2023-04-01T03:28:57;99382.50;;;10.63;67.38
34237;BME280;20501;45.956;13.632;2023-04-01T03:31:22;99390.06;;;10.34;75.17
34237;BME280;20501;45.956;13.632;2023-04-01T03:33:48;99392.81;;;8.71;75.13
34237;BME280;20501;45.956;13.632;2023-04-01T03:36:13;99397.03;;;11.35;71.67
34237;BME280;20501;45.956;13.632;2023-04-01T03:38:42;99397.81;;;11.91;68.45
34237;BME280;20501;45.956;13.632;2023-04-01T03:41:14;99396.88;;;10.47;70.45
34237;BME280;20501;45.956;13.632;2023-04-01T03:43:39;99402.16;;;9.11;76.89
34237;BME280;20501;45.956;13.632;2023-04-01T03:46:05;99409.03;;;11.40;71.42
34237;BME280;20501;45.956;13.632;2023-04-01T03:48:30;99413.00;;;11.21;67.42
34237;BME280;20501;45.956;13.632;2023-04-01T03:50:56;99400.00;;;11.00;71.78
34237;BME280;20501;45.956;13.632;2023-04-01T03:53:21;99415.78;;;10.47;73.38
34237;BME280;20501;45.956;13.632;2023-04-01T03:55:47;99417.59;;;10.55;71.19
34237;BME280;20501;45.956;13.632;2023-04-01T03:58:12;99421.78;;;10.32;69.85
34237;BME280;20501;45.956;13.632;2023-04-01T04:00:38;99416.91;;;9.68;71.95
34237;BME280;20501;45.956;13.632;2023-04-01T04:03:03;99422.59;;;10.16;75.34
34237;BME280;20501;45.956;13.632;2023-04-01T04:05:29;99418.44;;;9.71;72.77
34237;BME280;20501;45.956;13.632;2023-04-01T04:07:54;99436.97;;;10.33;74.45
34237;BME280;20501;45.956;13.632;2023-04-01T04:10:20;99431.22;;;11.27;70.23
34237;BME280;20501;45.956;13.632;2023-04-01T04:12:45;99428.94;;;9.39;70.45
34237;BME280;20501;45.956;13.632;2023-04-01T04:15:11;99423.34;;;9.06;76.92
34237;BME280;20501;45.956;13.632;2023-04-01T04:17:37;99432.22;;;10.19;74.21
34237;BME280;20501;45.956;13.632;2023-04-01T04:20:02;99433.28;;;8.61;75.93
34237;BME280;20501;45.956;13.632;2023-04-01T04:22:28;99438.66;;;8.61;74.39
34237;BME280;20501;45.956;13.632;2023-04-01T04:24:53;99436.19;;;10.82;72.46
34237;BME280;20501;45.956;13.632;2023-04-01T04:27:19;99434.06;;;11.82;68.34
34237;BME280;20501;45.956;13.632;2023-04-01T04:29:45;99428.03;;;11.15;70.32
34237;BME280;20501;45.956;13.632;2023-04-01T04:32:10;99434.47;;;12.34;66.67
34237;BME280;20501;45.956;13.632;2023-04-01T04:34:35;99444.75;;;12.15;63.95
34237;BME280;20501;45.956;13.632;2023-04-01T04:37:01;99445.19;;;9.99;70.12
34237;BME280;20501;45.956;13.632;2023-04-01T04:39:27;99442.41;;;9.82;72.56
34237;BME280;20501;45.956;13.632;2023-04-01T04:41:52;99441.50;;;9.31;76.29
34237;BME280;20501;45.956;13.632;2023-04-01T04:44:17;99450.56;;;9.99;71.17
34237;BME280;20501;45.956;13.632;2023-04-01T04:46:43;99458.81;;;9.54;74.50
34237;BME280;20501;45.956;13.632;2023-04-01T04:49:08;99453.75;;;8.72;75.11
34237;BME280;20501;45.956;13.632;2023-04-01T04:51:34;99455.38;;;9.79;75.84
34237;BME280;20501;45.956;13.632;2023-04-01T04:54:01;99452.00;;;10.36;73.14
34237;BME280;20501;45.956;13.632;2023-04-01T04:56:27;99450.25;;;11.90;68.51
34237;BME280;20501;45.956;13.632;2023-04-01T04:58:53;99458.91;;;10.30;72.50
34237;BME280;20501;45.956;13.632;2023-04-01T05:01:19;99456.13;;;9.02;75.80
34237;BME280;20501;45.956;13.632;2023-04-01T05:03:45;99455.91;;;10.42;73.38
34237;BME280;20501;45.956;13.632;2023-04-01T05:06:13;99464.84;;;9.48;76.18
34237;BME280;20501;45.956;13.632;2023-04-01T05:08:39;99457.88;;;9.37;77.05
34237;BME280;20501;45.956;13.632;2023-04-01T05:11:09;99467.31;;;8.89;77.00
34237;BME280;20501;45.956;13.632;2023-04-01T05:13:35;99465.16;;;9.19;75.80
34237;BME280;20501;45.956;13.632;2023-04-01T05:16:01;99469.34;;;9.74;75.31
34237;BME280;20501;45.956;13.632;2023-04-01T05:18:27;99463.81;;;9.41;74.39
34237;BME280;20501;45.956;13.632;2023-04-01T05:20:54;99475.47;;;8.97;74.68
34237;BME280;20501;45.956;13.632;2023-04-01T05:23:19;99487.47;;;9.29;76.72
34237;BME280;20501;45.956;13.632;2023-04-01T05:25:49;99479.59;;;10.05;74.08
34237;BME280;20501;45.956;13.632;2023-04-01T05:28:16;99485.09;;;10.46;71.65
34237;BME280;20501;45.956;13.632;2023-04-01T05:30:43;99480.88;;;11.91;68.15
34237;BME280;20501;45.956;13.632;2023-04-01T05:33:10;99487.88;;;12.48;65.94
34237;BME280;20501;45.956;13.632;2023-04-01T05:35:35;99490.53;;;11.12;68.68
34237;BME280;20501;45.956;13.632;2023-04-01T05:38:02;99496.28;;;10.76;71.54
34237;BME280;20501;45.956;13.632;2023-04-01T05:40:28;99496.00;;;11.69;68.71
34237;BME280;20501;45.956;13.632;2023-04-01T05:42:54;99500.03;;;12.21;67.25
34237;BME280;20501;45.956;13.632;2023-04-01T05:45:20;99491.66;;;12.39;65.56
34237;BME280;20501;45.956;13.632;2023-04-01T05:47:45;99491.19;;;12.59;65.67
34237;BME280;20501;45.956;13.632;2023-04-01T05:50:11;99498.28;;;10.66;69.10
34237;BME280;20501;45.956;13.632;2023-04-01T05:52:37;99497.56;;;10.31;71.38
34237;BME280;20501;45.956;13.632;2023-04-01T05:55:03;99501.34;;;10.88;68.26
34237;BME280;20501;45.956;13.632;2023-04-01T05:57:28;99500.91;;;9.82;71.87
34237;BME280;20501;45.956;13.632;2023-04-01T05:59:54;99514.34;;;11.17;70.88
34237;BME280;20501;45.956;13.632;2023-04-01T06:02:19;99521.66;;;9.02;76.16
34237;BME280;20501;45.956;13.632;2023-04-01T06:04:45;99512.84;;;10.14;74.97
34237;BME280;20501;45.956;13.632;2023-04-01T06:07:15;99520.34;;;11.69;69.21
34237;BME280;20501;45.956;13.632;2023-04-01T06:09:42;99520.19;;;12.50;66.41
34237;BME280;20501;45.956;13.632;2023-04-01T06:30:29;99540.69;;;10.65;69.10
34237;BME280;20501;45.956;13.632;2023-04-01T06:33:08;99544.25;;;10.91;71.62
34237;BME280;20501;45.956;13.632;2023-04-01T06:46:19;99538.00;;;10.22;71.05
34237;BME280;20501;45.956;13.632;2023-04-01T06:52:02;99546.09;;;9.80;74.14
34237;BME280;20501;45.956;13.632;2023-04-01T06:54:38;99554.41;;;9.60;72.54
34237;BME280;20501;45.956;13.632;2023-04-01T06:57:32;99557.25;;;9.58;73.77
34237;BME280;20501;45.956;13.632;2023-04-01T07:00:03;99570.75;;;9.67;74.90
34237;BME280;20501;45.956;13.632;2023-04-01T07:02:36;99571.97;;;9.72;76.36
34237;BME280;20501;45.956;13.632;2023-04-01T07:05:04;99571.63;;;10.36;74.41
34237;BME280;20501;45.956;13.632;2023-04-01T07:07:46;99570.44;;;11.48;69.12
34237;BME280;20501;45.956;13.632;2023-04-01T07:10:25;99578.38;;;12.31;66.88
34237;BME280;20501;45.956;13.632;2023-04-01T07:12:58;99570.44;;;12.84;65.11
34237;BME280;20501;45.956;13.632;2023-04-01T07:15:33;99567.16;;;11.77;68.03
34237;BME280;20501;45.956;13.632;2023-04-01T07:18:05;99569.75;;;12.59;65.92
34237;BME280;20501;45.956;13.632;2023-04-01T07:20:38;99569.47;;;13.00;63.54
34237;BME280;20501;45.956;13.632;2023-04-01T07:23:15;99572.13;;;13.08;64.34
34237;BME280;20501;45.956;13.632;2023-04-01T07:25:44;99566.84;;;12.68;65.52
34237;BME280;20501;45.956;13.632;2023-04-01T07:28:14;99568.03;;;12.34;65.43
34237;BME280;20501;45.956;13.632;2023-04-01T07:36:54;99565.44;;;11.85;65.21
34237;BME280;20501;45.956;13.632;2023-04-01T07:50:32;99589.22;;;11.50;68.95
34237;BME280;20501;45.956;13.632;2023-04-01T07:55:50;99592.28;;;12.11;67.87
34237;BME280;20501;45.956;13.632;2023-04-01T07:58:59;99594.69;;;13.09;64.83
34237;BME280;20501;45.956;13.632;2023-04-01T08:09:21;99598.44;;;12.45;67.37
34237;BME280;20501;45.956;13.632;2023-04-01T08:14:30;99608.38;;;12.13;66.92
34237;BME280;20501;45.956;13.632;2023-04-01T08:17:16;99607.47;;;12.68;66.36
34237;BME280;20501;45.956;13.632;2023-04-01T08:20:12;99602.28;;;12.82;66.11
34237;BME280;20501;45.956;13.632;2023-04-01T08:22:47;99598.44;;;12.76;65.91
34237;BME280;20501;45.956;13.632;2023-04-01T08:25:20;99595.63;;;12.93;63.98
34237;BME280;20501;45.956;13.632;2023-04-01T08:28:03;99592.84;;;13.01;66.45
34237;BME280;20501;45.956;13.632;2023-04-01T08:30:53;99596.81;;;13.37;65.87
34237;BME280;20501;45.956;13.632;2023-04-01T08:33:25;99596.34;;;13.33;62.44
34237;BME280;20501;45.956;13.632;2023-04-01T08:38:29;99586.03;;;13.28;64.06
34237;BME280;20501;45.956;13.632;2023-04-01T08:40:59;99586.94;;;13.21;63.91
34237;BME280;20501;45.956;13.632;2023-04-01T08:44:22;99593.28;;;13.36;63.42
34237;BME280;20501;45.956;13.632;2023-04-01T08:57:24;99604.84;;;13.07;63.17
34237;BME280;20501;45.956;13.632;2023-04-01T09:11:21;99612.34;;;13.51;62.03
34237;BME280;20501;45.956;13.632;2023-04-01T09:28:28;99614.75;;;13.84;61.33
34237;BME280;20501;45.956;13.632;2023-04-01T09:31:09;99623.56;;;14.01;61.67
34237;BME280;20501;45.956;13.632;2023-04-01T09:34:15;99623.09;;;14.13;61.94
34237;BME280;20501;45.956;13.632;2023-04-01T09:39:34;99620.50;;;14.19;61.38
34237;BME280;20501;45.956;13.632;2023-04-01T09:42:14;99623.47;;;14.39;58.70
34237;BME280;20501;45.956;13.632;2023-04-01T09:58:40;99612.78;;;14.53;56.75
34237;BME280;20501;45.956;13.632;2023-04-01T10:04:25;99604.28;;;14.41;57.94
34237;BME280;20501;45.956;13.632;2023-04-01T10:10:26;99604.63;;;14.53;56.53
34237;BME280;20501;45.956;13.632;2023-04-01T10:37:52;99591.19;;;14.66;57.58
34237;BME280;20501;45.956;13.632;2023-04-01T10:56:46;99581.88;;;14.91;51.66
34237;BME280;20501;45.956;13.632;2023-04-01T11:33:36;99566.03;;;15.44;50.90
34237;BME280;20501;45.956;13.632;2023-04-01T11:36:37;99564.09;;;15.60;51.73
34237;BME280;20501;45.956;13.632;2023-04-01T11:39:32;99557.88;;;15.44;51.39
34237;BME280;20501;45.956;13.632;2023-04-01T11:44:34;99553.09;;;15.75;46.93
34237;BME280;20501;45.956;13.632;2023-04-01T11:50:18;99552.59;;;15.65;48.92
34237;BME280;20501;45.956;13.632;2023-04-01T11:53:10;99538.22;;;15.77;49.39
34237;BME280;20501;45.956;13.632;2023-04-01T11:55:43;99544.66;;;15.98;47.14
34237;BME280;20501;45.956;13.632;2023-04-01T11:58:21;99544.72;;;15.76;48.88
34237;BME280;20501;45.956;13.632;2023-04-01T12:01:06;99534.75;;;15.90;48.86
34237;BME280;20501;45.956;13.632;2023-04-01T12:03:46;99531.88;;;15.99;44.54
34237;BME280;20501;45.956;13.632;2023-04-01T12:12:18;99535.19;;;15.94;49.37
34237;BME280;20501;45.956;13.632;2023-04-01T12:15:01;99534.16;;;16.37;48.97
34237;BME280;20501;45.956;13.632;2023-04-01T12:17:48;99528.63;;;16.17;48.53
34237;BME280;20501;45.956;13.632;2023-04-01T12:20:42;99526.84;;;15.96;51.36
34237;BME280;20501;45.956;13.632;2023-04-01T12:34:13;99522.00;;;16.39;50.49
34237;BME280;20501;45.956;13.632;2023-04-01T13:16:52;99488.78;;;16.98;39.88
34237;BME280;20501;45.956;13.632;2023-04-01T13:19:48;99486.88;;;16.85;35.91
34237;BME280;20501;45.956;13.632;2023-04-01T13:25:06;99485.22;;;16.91;36.24
34237;BME280;20501;45.956;13.632;2023-04-01T13:27:43;99478.28;;;16.88;35.25
34237;BME280;20501;45.956;13.632;2023-04-01T13:35:46;99488.75;;;16.78;38.10
34237;BME280;20501;45.956;13.632;2023-04-01T13:43:51;99488.75;;;16.71;39.80
34237;BME280;20501;45.956;13.632;2023-04-01T14:00:19;99466.75;;;16.86;37.40
34237;BME280;20501;45.956;13.632;2023-04-01T14:03:43;99473.69;;;17.02;38.16
34237;BME280;20501;45.956;13.632;2023-04-01T14:06:19;99460.69;;;17.04;36.09
34237;BME280;20501;45.956;13.632;2023-04-01T14:11:22;99468.84;;;16.91;34.61
34237;BME280;20501;45.956;13.632;2023-04-01T14:22:34;99463.78;;;16.74;38.65
34237;BME280;20501;45.956;13.632;2023-04-01T14:33:31;99451.22;;;16.73;39.15
34237;BME280;20501;45.956;13.632;2023-04-01T14:49:40;99452.25;;;16.85;41.92
34237;BME280;20501;45.956;13.632;2023-04-01T14:54:42;99454.53;;;16.55;45.25
34237;BME280;20501;45.956;13.632;2023-04-01T14:57:14;99449.66;;;16.30;45.31
34237;BME280;20501;45.956;13.632;2023-04-01T14:59:48;99444.84;;;16.32;45.16
34237;BME280;20501;45.956;13.632;2023-04-01T15:05:07;99457.22;;;16.42;44.76
34237;BME280;20501;45.956;13.632;2023-04-01T15:13:58;99452.38;;;16.30;48.71
34237;BME280;20501;45.956;13.632;2023-04-01T15:16:19;99453.13;;;16.04;48.62
34237;BME280;20501;45.956;13.632;2023-04-01T15:18:56;99454.28;;;16.30;49.11
34237;BME280;20501;45.956;13.632;2023-04-01T15:35:30;99489.69;;;16.30;49.45
34237;BME280;20501;45.956;13.632;2023-04-01T15:40:49;99481.81;;;16.00;55.85
34237;BME280;20501;45.956;13.632;2023-04-01T15:46:20;99494.41;;;15.72;56.61
34237;BME280;20501;45.956;13.632;2023-04-01T16:00:24;99505.53;;;15.42;58.99
34237;BME280;20501;45.956;13.632;2023-04-01T16:06:08;99507.75;;;15.32;59.30
34237;BME280;20501;45.956;13.632;2023-04-01T16:20:19;99520.63;;;14.73;60.59
34237;BME280;20501;45.956;13.632;2023-04-01T16:43:44;99537.13;;;14.72;59.61
34237;BME280;20501;45.956;13.632;2023-04-01T16:46:33;99537.53;;;14.68;59.18
34237;BME280;20501;45.956;13.632;2023-04-01T16:49:17;99535.84;;;14.67;59.44
34237;BME280;20501;45.956;13.632;2023-04-01T16:54:52;99532.06;;;14.53;59.85
34237;BME280;20501;45.956;13.632;2023-04-01T16:57:51;99519.84;;;14.43;60.05
34237;BME280;20501;45.956;13.632;2023-04-01T17:02:51;99513.44;;;14.50;59.92
34237;BME280;20501;45.956;13.632;2023-04-01T17:05:39;99517.78;;;14.45;60.08
34237;BME280;20501;45.956;13.632;2023-04-01T17:08:43;99521.28;;;14.60;59.60
34237;BME280;20501;45.956;13.632;2023-04-01T17:11:42;99522.97;;;14.61;59.71
34237;BME280;20501;45.956;13.632;2023-04-01T17:19:27;99524.69;;;14.47;59.75
34237;BME280;20501;45.956;13.632;2023-04-01T17:32:12;99541.97;;;14.76;59.68
34237;BME280;20501;45.956;13.632;2023-04-01T17:37:51;99539.34;;;13.18;65.88
34237;BME280;20501;45.956;13.632;2023-04-01T17:45:41;99558.44;;;14.38;61.03
34237;BME280;20501;45.956;13.632;2023-04-01T17:48:21;99563.72;;;14.61;60.46
34237;BME280;20501;45.956;13.632;2023-04-01T17:53:31;99571.31;;;14.66;60.56
34237;BME280;20501;45.956;13.632;2023-04-01T17:56:16;99574.81;;;14.60;60.33
34237;BME280;20501;45.956;13.632;2023-04-01T17:58:58;99584.13;;;14.05;63.15
34237;BME280;20501;45.956;13.632;2023-04-01T18:15:44;99599.38;;;12.60;68.60
34237;BME280;20501;45.956;13.632;2023-04-01T18:18:35;99601.53;;;12.73;67.92
34237;BME280;20501;45.956;13.632;2023-04-01T18:26:36;99607.84;;;14.12;62.72
34237;BME280;20501;45.956;13.632;2023-04-01T18:29:27;99611.44;;;14.49;61.30
34237;BME280;20501;45.956;13.632;2023-04-01T18:40:32;99631.06;;;11.87;71.83
34237;BME280;20501;45.956;13.632;2023-04-01T18:45:57;99638.34;;;11.86;71.78
34237;BME280;20501;45.956;13.632;2023-04-01T18:51:13;99623.31;;;12.48;69.08
34237;BME280;20501;45.956;13.632;2023-04-01T18:56:10;99637.00;;;12.07;69.98
34237;BME280;20501;45.956;13.632;2023-04-01T18:58:48;99639.13;;;13.54;65.48
34237;BME280;20501;45.956;13.632;2023-04-01T19:01:47;99636.38;;;14.07;63.41
34237;BME280;20501;45.956;13.632;2023-04-01T19:04:28;99632.63;;;12.46;68.09
34237;BME280;20501;45.956;13.632;2023-04-01T19:07:00;99636.03;;;13.03;66.66
34237;BME280;20501;45.956;13.632;2023-04-01T19:09:32;99637.03;;;12.78;67.47
34237;BME280;20501;45.956;13.632;2023-04-01T19:25:54;99663.44;;;12.45;67.63
34237;BME280;20501;45.956;13.632;2023-04-01T19:33:58;99673.28;;;13.40;65.17
34237;BME280;20501;45.956;13.632;2023-04-01T19:36:52;99681.66;;;12.59;68.29
34237;BME280;20501;45.956;13.632;2023-04-01T19:44:31;99683.16;;;13.01;66.80
34237;BME280;20501;45.956;13.632;2023-04-01T19:47:35;99680.00;;;13.91;63.74
34237;BME280;20501;45.956;13.632;2023-04-01T19:50:18;99681.59;;;13.85;63.61
34237;BME280;20501;45.956;13.632;2023-04-01T19:52:43;99676.66;;;14.19;62.59
34237;BME280;20501;45.956;13.632;2023-04-01T20:00:48;99694.34;;;12.11;69.66
34237;BME280;20501;45.956;13.632;2023-04-01T20:11:25;99691.28;;;12.22;67.40
34237;BME280;20501;45.956;13.632;2023-04-01T20:16:21;99706.19;;;11.93;70.13
34237;BME280;20501;45.956;13.632;2023-04-01T20:19:00;99706.88;;;12.12;70.14
34237;BME280;20501;45.956;13.632;2023-04-01T20:21:35;99705.66;;;11.56;70.66
34237;BME280;20501;45.956;13.632;2023-04-01T20:24:23;99711.25;;;11.55;70.49
34237;BME280;20501;45.956;13.632;2023-04-01T20:30:01;99714.47;;;12.16;69.23
34237;BME280;20501;45.956;13.632;2023-04-01T20:33:02;99719.53;;;11.86;69.16
34237;BME280;20501;45.956;13.632;2023-04-01T20:35:35;99716.47;;;11.89;70.36
34237;BME280;20501;45.956;13.632;2023-04-01T20:40:56;99716.81;;;11.61;70.63
34237;BME280;20501;45.956;13.632;2023-04-01T20:46:15;99723.72;;;12.95;66.10
34237;BME280;20501;45.956;13.632;2023-04-01T20:51:46;99734.16;;;12.58;68.27
34237;BME280;20501;45.956;13.632;2023-04-01T21:10:51;99740.16;;;11.71;70.94
34237;BME280;20501;45.956;13.632;2023-04-01T21:13:47;99733.09;;;13.15;66.21
34237;BME280;20501;45.956;13.632;2023-04-01T21:19:34;99747.34;;;13.96;63.35
34237;BME280;20501;45.956;13.632;2023-04-01T21:41:36;99739.41;;;13.08;66.48
34237;BME280;20501;45.956;13.632;2023-04-01T21:53:14;99756.03;;;12.48;66.48
34237;BME280;20501;45.956;13.632;2023-04-01T22:08:00;99758.81;;;12.07;69.12
34237;BME280;20501;45.956;13.632;2023-04-01T22:15:59;99753.66;;;13.88;63.32
34237;BME280;20501;45.956;13.632;2023-04-01T22:18:31;99759.59;;;11.83;68.54
34237;BME280;20501;45.956;13.632;2023-04-01T22:21:33;99760.50;;;12.08;68.53
34237;BME280;20501;45.956;13.632;2023-04-01T22:24:26;99752.84;;;11.95;68.08
34237;BME280;20501;45.956;13.632;2023-04-01T22:27:55;99757.06;;;10.10;74.88
34237;BME280;20501;45.956;13.632;2023-04-01T22:32:44;99754.13;;;13.45;64.89
34237;BME280;20501;45.956;13.632;2023-04-01T22:43:03;99757.88;;;13.90;62.84
34237;BME280;20501;45.956;13.632;2023-04-01T22:50:45;99760.94;;;12.53;67.99
34237;BME280;20501;45.956;13.632;2023-04-01T22:53:30;99757.03;;;13.12;65.36
34237;BME280;20501;45.956;13.632;2023-04-01T22:56:05;99757.63;;;13.54;64.11
34237;BME280;20501;45.956;13.632;2023-04-01T22:58:42;99758.25;;;13.32;64.45
34237;BME280;20501;45.956;13.632;2023-04-01T23:01:15;99773.00;;;12.98;66.34
34237;BME280;20501;45.956;13.632;2023-04-01T23:03:44;99770.94;;;13.72;63.55
34237;BME280;20501;45.956;13.632;2023-04-01T23:06:17;99771.84;;;13.87;62.86
34237;BME280;20501;45.956;13.632;2023-04-01T23:11:51;99776.38;;;13.32;62.83
34237;BME280;20501;45.956;13.632;2023-04-01T23:22:49;99777.03;;;13.42;63.97
34237;BME280;20501;45.956;13.632;2023-04-01T23:26:07;99778.47;;;13.22;64.63
34237;BME280;20501;45.956;13.632;2023-04-01T23:38:15;99783.09;;;13.53;63.80
34237;BME280;20501;45.956;13.632;2023-04-01T23:40:41;99785.50;;;13.94;62.70
34237;BME280;20501;45.956;13.632;2023-04-01T23:43:17;99779.38;;;14.00;62.44
34237;BME280;20501;45.956;13.632;2023-04-01T23:45:46;99783.63;;;13.08;65.34
34237;BME280;20501;45.956;13.632;2023-04-01T23:48:14;99784.03;;;11.99;66.47
34237;BME280;20501;45.956;13.632;2023-04-01T23:50:41;99780.25;;;11.67;70.77
34237;BME280;20501;45.956;13.632;2023-04-01T23:53:18;99781.28;;;11.15;70.64
34237;BME280;20501;45.956;13.632;2023-04-01T23:55:46;99777.44;;;10.30;73.80
34237;BME280;20501;45.956;13.632;2023-04-01T23:58:22;99775.97;;;9.73;75.73
